sensor_id;sensor_type;location;lat;lon;timestamp;pressure;altitude;pressure_sealevel;temperature;humidity
66742;BME280;53654;54.152;19.432;2023-10-08T00:01:21;101155.88;;;11.67;55.67
66742;BME280;53654;54.152;19.432;2023-10-08T00:03:49;101160.08;;;11.66;55.51
66742;BME280;53654;54.152;19.432;2023-10-08T00:06:20;101157.11;;;11.65;55.57
66742;BME280;53654;54.152;19.432;2023-10-08T00:08:51;101163.77;;;11.63;55.15
66742;BME280;53654;54.152;19.432;2023-10-08T00:11:19;101167.80;;;11.61;54.87
66742;BME280;53654;54.152;19.432;2023-10-08T00:13:51;101163.97;;;11.59;54.77
66742;BME280;53654;54.152;19.432;2023-10-08T00:16:23;101163.45;;;11.58;55.01
66742;BME280;53654;54.152;19.432;2023-10-08T00:18:52;101162.07;;;11.55;54.81
66742;BME280;53654;54.152;19.432;2023-10-08T00:21:21;101171.67;;;11.55;54.34
66742;BME280;53654;54.152;19.432;2023-10-08T00:23:56;101175.73;;;11.50;53.91
66742;BME280;53654;54.152;19.432;2023-10-08T00:26:28;101174.17;;;11.47;53.70
66742;BME280;53654;54.152;19.432;2023-10-08T00:29:04;101178.73;;;11.45;53.63
66742;BME280;53654;54.152;19.432;2023-10-08T00:31:45;101175.42;;;11.41;53.79
66742;BME280;53654;54.152;19.432;2023-10-08T00:34:13;101177.52;;;11.40;53.96
66742;BME280;53654;54.152;19.432;2023-10-08T00:36:46;101173.34;;;11.39;53.43
66742;BME280;53654;54.152;19.432;2023-10-08T00:39:18;101176.85;;;11.35;53.08
66742;BME280;53654;54.152;19.432;2023-10-08T00:41:54;101174.78;;;11.30;52.93
66742;BME280;53654;54.152;19.432;2023-10-08T00:44:37;101177.25;;;11.24;52.93
66742;BME280;53654;54.152;19.432;2023-10-08T00:47:19;101180.59;;;11.21;53.14
66742;BME280;53654;54.152;19.432;2023-10-08T00:49:54;101182.52;;;11.17;53.36
66742;BME280;53654;54.152;19.432;2023-10-08T00:52:32;101183.75;;;11.15;53.74
66742;BME280;53654;54.152;19.432;2023-10-08T00:55:13;101184.29;;;11.12;53.89
66742;BME280;53654;54.152;19.432;2023-10-08T00:57:55;101183.60;;;11.10;53.90
66742;BME280;53654;54.152;19.432;2023-10-08T01:00:26;101187.96;;;11.08;53.67
66742;BME280;53654;54.152;19.432;2023-10-08T01:03:00;101191.47;;;11.05;53.67
66742;BME280;53654;54.152;19.432;2023-10-08T01:05:30;101199.33;;;11.04;53.37
66742;BME280;53654;54.152;19.432;2023-10-08T01:08:11;101203.35;;;11.02;53.10
66742;BME280;53654;54.152;19.432;2023-10-08T01:10:50;101203.35;;;11.01;53.24
66742;BME280;53654;54.152;19.432;2023-10-08T01:13:30;101204.75;;;11.01;52.97
66742;BME280;53654;54.152;19.432;2023-10-08T01:16:04;101204.23;;;10.99;52.88
66742;BME280;53654;54.152;19.432;2023-10-08T01:18:33;101208.25;;;11.00;52.73
66742;BME280;53654;54.152;19.432;2023-10-08T01:21:04;101208.77;;;11.00;52.57
66742;BME280;53654;54.152;19.432;2023-10-08T01:23:39;101207.38;;;11.01;51.96
66742;BME280;53654;54.152;19.432;2023-10-08T01:26:07;101211.39;;;11.00;51.68
66742;BME280;53654;54.152;19.432;2023-10-08T01:28:39;101217.16;;;10.98;51.77
66742;BME280;53654;54.152;19.432;2023-10-08T01:31:08;101225.02;;;10.96;51.45
66742;BME280;53654;54.152;19.432;2023-10-08T01:33:41;101223.10;;;10.93;51.33
66742;BME280;53654;54.152;19.432;2023-10-08T01:36:21;101222.59;;;10.89;51.19
66742;BME280;53654;54.152;19.432;2023-10-08T01:38:51;101226.61;;;10.87;51.03
66742;BME280;53654;54.152;19.432;2023-10-08T01:41:21;101232.55;;;10.85;50.77
66742;BME280;53654;54.152;19.432;2023-10-08T01:43:58;101236.92;;;10.81;50.66
66742;BME280;53654;54.152;19.432;2023-10-08T01:46:27;101241.11;;;10.79;50.37
66742;BME280;53654;54.152;19.432;2023-10-08T01:48:56;101246.16;;;10.79;50.53
66742;BME280;53654;54.152;19.432;2023-10-08T01:51:32;101253.84;;;10.78;50.25
66742;BME280;53654;54.152;19.432;2023-10-08T01:54:07;101253.33;;;10.75;49.76
66742;BME280;53654;54.152;19.432;2023-10-08T01:56:41;101260.84;;;10.73;49.95
66742;BME280;53654;54.152;19.432;2023-10-08T01:59:12;101262.93;;;10.70;50.33
66742;BME280;53654;54.152;19.432;2023-10-08T02:01:43;101265.02;;;10.69;50.47
66742;BME280;53654;54.152;19.432;2023-10-08T02:04:13;101270.09;;;10.67;50.32
66742;BME280;53654;54.152;19.432;2023-10-08T02:06:46;101275.15;;;10.65;49.78
66742;BME280;53654;54.152;19.432;2023-10-08T02:09:14;101269.73;;;10.63;49.25
66742;BME280;53654;54.152;19.432;2023-10-08T02:11:45;101273.23;;;10.61;48.89
66742;BME280;53654;54.152;19.432;2023-10-08T02:14:14;101273.23;;;10.62;48.97
66742;BME280;53654;54.152;19.432;2023-10-08T02:16:43;101278.81;;;10.62;49.03
66742;BME280;53654;54.152;19.432;2023-10-08T02:19:13;101281.09;;;10.60;48.89
66742;BME280;53654;54.152;19.432;2023-10-08T02:21:42;101283.87;;;10.58;49.24
66742;BME280;53654;54.152;19.432;2023-10-08T02:24:10;101286.31;;;10.57;49.40
66742;BME280;53654;54.152;19.432;2023-10-08T02:26:39;101286.83;;;10.58;49.57
66742;BME280;53654;54.152;19.432;2023-10-08T02:29:09;101296.43;;;10.56;49.62
66742;BME280;53654;54.152;19.432;2023-10-08T02:31:41;101294.16;;;10.54;49.63
66742;BME280;53654;54.152;19.432;2023-10-08T02:34:10;101289.63;;;10.53;48.77
66742;BME280;53654;54.152;19.432;2023-10-08T02:36:40;101290.85;;;10.50;47.90
66742;BME280;53654;54.152;19.432;2023-10-08T02:39:11;101296.25;;;10.46;47.69
66742;BME280;53654;54.152;19.432;2023-10-08T02:42:05;101304.79;;;10.40;47.51
66742;BME280;53654;54.152;19.432;2023-10-08T02:44:38;101315.95;;;10.42;47.33
66742;BME280;53654;54.152;19.432;2023-10-08T02:47:10;101316.47;;;10.40;47.43
66742;BME280;53654;54.152;19.432;2023-10-08T02:49:44;101315.42;;;10.40;47.35
66742;BME280;53654;54.152;19.432;2023-10-08T02:52:12;101315.59;;;10.40;47.15
66742;BME280;53654;54.152;19.432;2023-10-08T02:54:41;101315.23;;;10.39;47.27
66742;BME280;53654;54.152;19.432;2023-10-08T02:57:09;101321.51;;;10.39;47.64
66742;BME280;53654;54.152;19.432;2023-10-08T02:59:42;101323.61;;;10.40;47.81
66742;BME280;53654;54.152;19.432;2023-10-08T03:02:13;101329.04;;;10.40;47.88
66742;BME280;53654;54.152;19.432;2023-10-08T03:04:52;101331.79;;;10.38;48.10
66742;BME280;53654;54.152;19.432;2023-10-08T03:07:21;101328.99;;;10.39;48.04
66742;BME280;53654;54.152;19.432;2023-10-08T03:09:52;101327.08;;;10.38;48.17
66742;BME280;53654;54.152;19.432;2023-10-08T03:12:40;101330.39;;;10.36;48.12
66742;BME280;53654;54.152;19.432;2023-10-08T03:15:11;101330.91;;;10.34;48.00
66742;BME280;53654;54.152;19.432;2023-10-08T03:17:42;101336.48;;;10.32;48.14
66742;BME280;53654;54.152;19.432;2023-10-08T03:20:17;101341.37;;;10.33;48.44
66742;BME280;53654;54.152;19.432;2023-10-08T03:23:05;101345.20;;;10.28;48.67
66742;BME280;53654;54.152;19.432;2023-10-08T03:25:41;101351.65;;;10.26;48.87
66742;BME280;53654;54.152;19.432;2023-10-08T03:28:09;101355.48;;;10.24;48.77
66742;BME280;53654;54.152;19.432;2023-10-08T03:30:40;101357.56;;;10.24;48.61
66742;BME280;53654;54.152;19.432;2023-10-08T03:33:19;101362.79;;;10.22;48.69
66742;BME280;53654;54.152;19.432;2023-10-08T03:35:52;101365.75;;;10.21;47.90
66742;BME280;53654;54.152;19.432;2023-10-08T03:38:21;101367.29;;;10.19;47.77
66742;BME280;53654;54.152;19.432;2023-10-08T03:40:56;101360.48;;;10.16;47.49
66742;BME280;53654;54.152;19.432;2023-10-08T03:43:37;101354.02;;;10.15;47.69
66742;BME280;53654;54.152;19.432;2023-10-08T03:46:23;101362.91;;;10.14;48.22
66742;BME280;53654;54.152;19.432;2023-10-08T03:48:54;101365.53;;;10.14;48.49
66742;BME280;53654;54.152;19.432;2023-10-08T03:51:25;101370.06;;;10.15;48.33
66742;BME280;53654;54.152;19.432;2023-10-08T03:53:55;101366.92;;;10.15;48.36
66742;BME280;53654;54.152;19.432;2023-10-08T03:56:28;101374.42;;;10.14;48.46
66742;BME280;53654;54.152;19.432;2023-10-08T03:59:00;101372.85;;;10.14;48.71
66742;BME280;53654;54.152;19.432;2023-10-08T04:01:28;101369.54;;;10.13;48.80
66742;BME280;53654;54.152;19.432;2023-10-08T04:04:00;101377.37;;;10.12;48.89
66742;BME280;53654;54.152;19.432;2023-10-08T04:06:29;101377.73;;;10.12;48.92
66742;BME280;53654;54.152;19.432;2023-10-08T04:09:00;101381.91;;;10.12;49.44
66742;BME280;53654;54.152;19.432;2023-10-08T04:11:39;101389.92;;;10.09;49.69
66742;BME280;53654;54.152;19.432;2023-10-08T04:14:25;101393.21;;;10.05;50.04
66742;BME280;53654;54.152;19.432;2023-10-08T04:16:53;101394.95;;;10.04;50.29
66742;BME280;53654;54.152;19.432;2023-10-08T04:19:22;101396.52;;;10.02;50.43
66742;BME280;53654;54.152;19.432;2023-10-08T04:21:57;101400.00;;;10.03;50.79
66742;BME280;53654;54.152;19.432;2023-10-08T04:24:26;101404.38;;;10.04;51.09
66742;BME280;53654;54.152;19.432;2023-10-08T04:27:12;101409.77;;;10.02;51.13
66742;BME280;53654;54.152;19.432;2023-10-08T04:29:43;101412.73;;;10.03;51.03
66742;BME280;53654;54.152;19.432;2023-10-08T04:32:14;101415.00;;;10.03;50.48
66742;BME280;53654;54.152;19.432;2023-10-08T04:34:50;101418.82;;;10.01;50.27
66742;BME280;53654;54.152;19.432;2023-10-08T04:37:20;101425.62;;;10.00;50.29
66742;BME280;53654;54.152;19.432;2023-10-08T04:39:48;101418.47;;;9.98;50.02
66742;BME280;53654;54.152;19.432;2023-10-08T04:42:26;101425.23;;;9.93;49.61
66742;BME280;53654;54.152;19.432;2023-10-08T04:44:54;101423.30;;;9.89;49.42
66742;BME280;53654;54.152;19.432;2023-10-08T04:47:23;101425.54;;;9.86;49.35
66742;BME280;53654;54.152;19.432;2023-10-08T04:50:01;101425.52;;;9.81;49.48
66742;BME280;53654;54.152;19.432;2023-10-08T04:52:32;101427.61;;;9.80;49.50
66742;BME280;53654;54.152;19.432;2023-10-08T04:55:03;101428.47;;;9.80;49.72
66742;BME280;53654;54.152;19.432;2023-10-08T04:57:43;101431.09;;;9.80;49.72
66742;BME280;53654;54.152;19.432;2023-10-08T05:00:12;101430.91;;;9.80;49.23
66742;BME280;53654;54.152;19.432;2023-10-08T05:02:43;101436.30;;;9.78;49.22
66742;BME280;53654;54.152;19.432;2023-10-08T05:05:18;101429.66;;;9.74;49.25
66742;BME280;53654;54.152;19.432;2023-10-08T05:07:48;101437.34;;;9.77;49.54
66742;BME280;53654;54.152;19.432;2023-10-08T05:10:16;101437.19;;;9.79;49.56
66742;BME280;53654;54.152;19.432;2023-10-08T05:13:04;101440.14;;;9.78;49.88
66742;BME280;53654;54.152;19.432;2023-10-08T05:15:33;101446.60;;;9.80;49.83
66742;BME280;53654;54.152;19.432;2023-10-08T05:18:04;101451.31;;;9.82;49.62
66742;BME280;53654;54.152;19.432;2023-10-08T05:20:51;101462.48;;;9.82;49.61
66742;BME280;53654;54.152;19.432;2023-10-08T05:23:20;101461.43;;;9.84;49.67
66742;BME280;53654;54.152;19.432;2023-10-08T05:26:08;101464.76;;;9.84;49.57
66742;BME280;53654;54.152;19.432;2023-10-08T05:28:37;101468.59;;;9.86;50.04
66742;BME280;53654;54.152;19.432;2023-10-08T05:31:25;101478.85;;;9.81;51.03
66742;BME280;53654;54.152;19.432;2023-10-08T05:34:13;101482.27;;;9.71;51.56
66742;BME280;53654;54.152;19.432;2023-10-08T05:37:00;101488.80;;;9.60;51.83
66742;BME280;53654;54.152;19.432;2023-10-08T05:39:28;101492.24;;;9.54;52.11
66742;BME280;53654;54.152;19.432;2023-10-08T05:42:10;101500.20;;;9.47;52.35
66742;BME280;53654;54.152;19.432;2023-10-08T05:44:57;101502.92;;;9.39;52.57
66742;BME280;53654;54.152;19.432;2023-10-08T05:47:37;101506.71;;;9.33;53.16
66742;BME280;53654;54.152;19.432;2023-10-08T05:50:06;101510.36;;;9.32;53.32
66742;BME280;53654;54.152;19.432;2023-10-08T05:52:47;101515.91;;;9.30;53.36
66742;BME280;53654;54.152;19.432;2023-10-08T05:55:20;101522.16;;;9.28;53.69
66742;BME280;53654;54.152;19.432;2023-10-08T05:57:58;101524.95;;;9.29;53.51
66742;BME280;53654;54.152;19.432;2023-10-08T06:00:53;101527.38;;;9.28;53.69
66742;BME280;53654;54.152;19.432;2023-10-08T06:03:37;101526.36;;;9.30;53.70
66742;BME280;53654;54.152;19.432;2023-10-08T06:06:15;101528.67;;;9.35;53.98
66742;BME280;53654;54.152;19.432;2023-10-08T06:08:44;101528.20;;;9.42;53.84
66742;BME280;53654;54.152;19.432;2023-10-08T06:11:34;101537.61;;;9.43;53.58
66742;BME280;53654;54.152;19.432;2023-10-08T06:14:34;101541.10;;;9.44;53.64
66742;BME280;53654;54.152;19.432;2023-10-08T06:17:21;101546.20;;;9.49;53.81
66742;BME280;53654;54.152;19.432;2023-10-08T06:20:02;101552.70;;;9.57;54.06
66742;BME280;53654;54.152;19.432;2023-10-08T06:22:37;101559.04;;;9.63;54.17
66742;BME280;53654;54.152;19.432;2023-10-08T06:25:06;101564.33;;;9.71;54.09
66742;BME280;53654;54.152;19.432;2023-10-08T06:27:52;101569.59;;;9.77;54.27
66742;BME280;53654;54.152;19.432;2023-10-08T06:30:24;101574.70;;;9.82;54.32
66742;BME280;53654;54.152;19.432;2023-10-08T06:32:57;101579.44;;;9.86;54.62
66742;BME280;53654;54.152;19.432;2023-10-08T06:35:25;101583.09;;;9.87;54.22
66742;BME280;53654;54.152;19.432;2023-10-08T06:37:55;101586.41;;;9.87;54.29
66742;BME280;53654;54.152;19.432;2023-10-08T06:40:27;101585.04;;;9.89;54.42
66742;BME280;53654;54.152;19.432;2023-10-08T06:43:04;101586.98;;;9.93;54.49
66742;BME280;53654;54.152;19.432;2023-10-08T06:45:50;101591.69;;;9.93;54.75
66742;BME280;53654;54.152;19.432;2023-10-08T06:48:22;101594.67;;;9.96;54.55
66742;BME280;53654;54.152;19.432;2023-10-08T06:50:54;101599.44;;;10.04;54.72
66742;BME280;53654;54.152;19.432;2023-10-08T06:53:25;101603.48;;;10.11;55.09
66742;BME280;53654;54.152;19.432;2023-10-08T06:55:54;101605.11;;;10.18;55.04
66742;BME280;53654;54.152;19.432;2023-10-08T06:58:25;101608.84;;;10.25;54.78
66742;BME280;53654;54.152;19.432;2023-10-08T07:00:53;101608.05;;;10.35;54.08
66742;BME280;53654;54.152;19.432;2023-10-08T07:03:23;101613.52;;;10.42;51.66
66742;BME280;53654;54.152;19.432;2023-10-08T07:05:53;101620.73;;;10.51;51.80
66742;BME280;53654;54.152;19.432;2023-10-08T07:08:23;101626.73;;;10.64;51.45
66742;BME280;53654;54.152;19.432;2023-10-08T07:10:53;101633.95;;;10.77;50.89
66742;BME280;53654;54.152;19.432;2023-10-08T07:13:22;101635.91;;;10.87;50.30
66742;BME280;53654;54.152;19.432;2023-10-08T07:15:52;101637.02;;;10.98;49.23
66742;BME280;53654;54.152;19.432;2023-10-08T07:18:20;101644.20;;;11.06;48.99
66742;BME280;53654;54.152;19.432;2023-10-08T07:20:55;101652.08;;;11.09;49.28
66742;BME280;53654;54.152;19.432;2023-10-08T07:23:29;101655.93;;;11.12;49.16
66742;BME280;53654;54.152;19.432;2023-10-08T07:26:02;101655.59;;;11.17;49.24
66742;BME280;53654;54.152;19.432;2023-10-08T07:28:52;101657.01;;;11.23;49.53
66742;BME280;53654;54.152;19.432;2023-10-08T07:31:22;101657.56;;;11.33;49.01
66742;BME280;53654;54.152;19.432;2023-10-08T07:33:54;101660.03;;;11.43;48.38
66742;BME280;53654;54.152;19.432;2023-10-08T07:36:46;101657.95;;;11.48;48.47
66742;BME280;53654;54.152;19.432;2023-10-08T07:39:15;101663.20;;;11.55;48.05
66742;BME280;53654;54.152;19.432;2023-10-08T07:41:53;101662.18;;;11.65;48.00
66742;BME280;53654;54.152;19.432;2023-10-08T07:44:23;101668.66;;;11.73;48.23
66742;BME280;53654;54.152;19.432;2023-10-08T07:46:52;101672.02;;;11.80;48.03
66742;BME280;53654;54.152;19.432;2023-10-08T07:49:24;101671.33;;;11.87;47.64
66742;BME280;53654;54.152;19.432;2023-10-08T07:51:59;101678.50;;;11.90;47.23
66742;BME280;53654;54.152;19.432;2023-10-08T07:54:27;101678.16;;;11.92;46.86
66742;BME280;53654;54.152;19.432;2023-10-08T07:56:56;101673.43;;;11.95;46.75
66742;BME280;53654;54.152;19.432;2023-10-08T07:59:41;101675.18;;;11.96;46.46
66742;BME280;53654;54.152;19.432;2023-10-08T08:02:09;101686.02;;;11.99;45.87
66742;BME280;53654;54.152;19.432;2023-10-08T08:04:40;101692.15;;;12.00;45.71
66742;BME280;53654;54.152;19.432;2023-10-08T08:07:11;101696.87;;;12.03;46.16
66742;BME280;53654;54.152;19.432;2023-10-08T08:09:45;101694.95;;;12.07;46.35
66742;BME280;53654;54.152;19.432;2023-10-08T08:12:21;101694.77;;;12.09;46.05
66742;BME280;53654;54.152;19.432;2023-10-08T08:14:54;101701.60;;;12.10;46.01
66742;BME280;53654;54.152;19.432;2023-10-08T08:17:22;101698.96;;;12.11;45.90
66742;BME280;53654;54.152;19.432;2023-10-08T08:19:52;101702.81;;;12.11;45.98
66742;BME280;53654;54.152;19.432;2023-10-08T08:22:21;101700.89;;;12.13;45.91
66742;BME280;53654;54.152;19.432;2023-10-08T08:24:52;101708.77;;;12.15;46.26
66742;BME280;53654;54.152;19.432;2023-10-08T08:27:32;101715.23;;;12.20;46.42
66742;BME280;53654;54.152;19.432;2023-10-08T08:30:01;101731.86;;;12.22;45.43
66742;BME280;53654;54.152;19.432;2023-10-08T08:32:39;101723.29;;;12.16;42.70
66742;BME280;53654;54.152;19.432;2023-10-08T08:35:09;101726.25;;;12.11;42.88
66742;BME280;53654;54.152;19.432;2023-10-08T08:37:38;101727.48;;;12.11;44.18
66742;BME280;53654;54.152;19.432;2023-10-08T08:40:08;101730.45;;;12.13;44.97
66742;BME280;53654;54.152;19.432;2023-10-08T08:42:37;101732.56;;;12.16;45.59
66742;BME280;53654;54.152;19.432;2023-10-08T08:45:09;101735.70;;;12.20;45.99
66742;BME280;53654;54.152;19.432;2023-10-08T08:47:39;101740.08;;;12.23;45.85
66742;BME280;53654;54.152;19.432;2023-10-08T08:50:11;101745.51;;;12.27;45.83
66742;BME280;53654;54.152;19.432;2023-10-08T08:52:40;101744.98;;;12.27;45.25
66742;BME280;53654;54.152;19.432;2023-10-08T08:55:09;101749.70;;;12.31;44.80
66742;BME280;53654;54.152;19.432;2023-10-08T08:57:50;101747.26;;;12.31;44.46
66742;BME280;53654;54.152;19.432;2023-10-08T09:00:19;101745.16;;;12.32;44.14
66742;BME280;53654;54.152;19.432;2023-10-08T09:02:48;101753.02;;;12.32;43.65
66742;BME280;53654;54.152;19.432;2023-10-08T09:05:18;101752.68;;;12.33;43.58
66742;BME280;53654;54.152;19.432;2023-10-08T09:07:56;101760.38;;;12.35;43.95
66742;BME280;53654;54.152;19.432;2023-10-08T09:10:26;101763.17;;;12.39;43.85
66742;BME280;53654;54.152;19.432;2023-10-08T09:12:58;101767.73;;;12.41;43.65
66742;BME280;53654;54.152;19.432;2023-10-08T09:15:28;101768.78;;;12.40;43.07
66742;BME280;53654;54.152;19.432;2023-10-08T09:17:56;101767.90;;;12.41;43.27
66742;BME280;53654;54.152;19.432;2023-10-08T09:20:25;101769.13;;;12.43;43.40
66742;BME280;53654;54.152;19.432;2023-10-08T09:23:09;101778.40;;;12.44;43.19
66742;BME280;53654;54.152;19.432;2023-10-08T09:25:43;101778.40;;;12.41;43.38
66742;BME280;53654;54.152;19.432;2023-10-08T09:28:12;101788.02;;;12.39;43.29
66742;BME280;53654;54.152;19.432;2023-10-08T09:30:43;101789.25;;;12.37;43.51
66742;BME280;53654;54.152;19.432;2023-10-08T09:33:14;101795.02;;;12.37;43.92
66742;BME280;53654;54.152;19.432;2023-10-08T09:35:44;101791.35;;;12.41;44.56
66742;BME280;53654;54.152;19.432;2023-10-08T09:38:15;101799.58;;;12.43;43.46
66742;BME280;53654;54.152;19.432;2023-10-08T09:40:51;101797.65;;;12.41;43.33
66742;BME280;53654;54.152;19.432;2023-10-08T09:43:22;101797.83;;;12.42;43.52
66742;BME280;53654;54.152;19.432;2023-10-08T09:45:54;101792.75;;;12.43;43.28
66742;BME280;53654;54.152;19.432;2023-10-08T09:48:26;101798.02;;;12.47;42.63
66742;BME280;53654;54.152;19.432;2023-10-08T09:50:58;101801.34;;;12.49;42.18
66742;BME280;53654;54.152;19.432;2023-10-08T09:53:38;101811.13;;;12.44;42.69
66742;BME280;53654;54.152;19.432;2023-10-08T09:56:13;101817.08;;;12.37;43.48
66742;BME280;53654;54.152;19.432;2023-10-08T09:58:44;101813.23;;;12.31;43.81
66742;BME280;53654;54.152;19.432;2023-10-08T10:01:13;101816.19;;;12.28;43.46
66742;BME280;53654;54.152;19.432;2023-10-08T10:03:41;101829.14;;;12.26;43.71
66742;BME280;53654;54.152;19.432;2023-10-08T10:06:15;101826.69;;;12.24;44.36
66742;BME280;53654;54.152;19.432;2023-10-08T10:08:45;101832.09;;;12.21;44.23
66742;BME280;53654;54.152;19.432;2023-10-08T10:11:16;101829.82;;;12.19;44.02
66742;BME280;53654;54.152;19.432;2023-10-08T10:13:45;101835.23;;;12.17;43.55
66742;BME280;53654;54.152;19.432;2023-10-08T10:16:18;101832.61;;;12.16;43.65
66742;BME280;53654;54.152;19.432;2023-10-08T10:18:49;101831.73;;;12.15;44.58
66742;BME280;53654;54.152;19.432;2023-10-08T10:23:49;101841.52;;;12.12;44.87
66742;BME280;53654;54.152;19.432;2023-10-08T10:31:48;101849.72;;;12.05;44.76
66742;BME280;53654;54.152;19.432;2023-10-08T10:34:25;101856.20;;;12.05;45.21
66742;BME280;53654;54.152;19.432;2023-10-08T10:36:58;101867.23;;;12.08;45.64
66742;BME280;53654;54.152;19.432;2023-10-08T10:39:31;101879.13;;;12.13;44.24
66742;BME280;53654;54.152;19.432;2023-10-08T10:42:01;101888.94;;;12.18;43.88
66742;BME280;53654;54.152;19.432;2023-10-08T10:44:32;101892.80;;;12.19;43.33
66742;BME280;53654;54.152;19.432;2023-10-08T10:47:01;101889.64;;;12.15;43.72
66742;BME280;53654;54.152;19.432;2023-10-08T10:49:46;101897.84;;;12.12;44.15
66742;BME280;53654;54.152;19.432;2023-10-08T10:52:27;101891.20;;;12.11;44.07
66742;BME280;53654;54.152;19.432;2023-10-08T10:55:15;101895.71;;;12.05;44.52
66742;BME280;53654;54.152;19.432;2023-10-08T10:57:56;101883.83;;;12.04;45.33
66742;BME280;53654;54.152;19.432;2023-10-08T11:00:32;101898.52;;;12.04;45.82
66742;BME280;53654;54.152;19.432;2023-10-08T11:03:03;101895.38;;;12.05;45.19
66742;BME280;53654;54.152;19.432;2023-10-08T11:05:33;101898.86;;;12.05;45.48
66742;BME280;53654;54.152;19.432;2023-10-08T11:08:06;101899.05;;;12.05;46.46
66742;BME280;53654;54.152;19.432;2023-10-08T11:10:37;101897.33;;;12.12;47.23
66742;BME280;53654;54.152;19.432;2023-10-08T11:13:15;101893.31;;;12.18;46.81
66742;BME280;53654;54.152;19.432;2023-10-08T11:15:45;101905.58;;;12.21;46.01
66742;BME280;53654;54.152;19.432;2023-10-08T11:18:20;101905.75;;;12.21;45.53
66742;BME280;53654;54.152;19.432;2023-10-08T11:20:50;101911.86;;;12.22;45.51
66742;BME280;53654;54.152;19.432;2023-10-08T11:23:52;101909.78;;;12.25;45.83
66742;BME280;53654;54.152;19.432;2023-10-08T11:26:37;101912.92;;;12.21;46.70
66742;BME280;53654;54.152;19.432;2023-10-08T11:29:22;101916.94;;;12.20;46.35
66742;BME280;53654;54.152;19.432;2023-10-08T11:31:53;101928.13;;;12.18;46.01
66742;BME280;53654;54.152;19.432;2023-10-08T11:34:21;101921.65;;;12.17;46.35
66742;BME280;53654;54.152;19.432;2023-10-08T11:36:53;101920.44;;;12.19;46.41
66742;BME280;53654;54.152;19.432;2023-10-08T11:39:21;101922.88;;;12.19;46.72
66742;BME280;53654;54.152;19.432;2023-10-08T11:42:02;101920.60;;;12.16;46.76
66742;BME280;53654;54.152;19.432;2023-10-08T11:44:53;101930.55;;;12.11;47.24
66742;BME280;53654;54.152;19.432;2023-10-08T11:47:22;101934.21;;;12.10;46.94
66742;BME280;53654;54.152;19.432;2023-10-08T11:49:50;101931.23;;;12.06;46.39
66742;BME280;53654;54.152;19.432;2023-10-08T11:52:22;101928.77;;;12.01;45.97
66742;BME280;53654;54.152;19.432;2023-10-08T11:54:51;101941.17;;;12.00;45.66
66742;BME280;53654;54.152;19.432;2023-10-08T11:57:21;101939.95;;;11.98;45.21
66742;BME280;53654;54.152;19.432;2023-10-08T11:59:50;101942.89;;;11.95;45.84
66742;BME280;53654;54.152;19.432;2023-10-08T12:02:23;101931.70;;;11.94;46.28
66742;BME280;53654;54.152;19.432;2023-10-08T12:04:51;101929.95;;;11.95;46.73
66742;BME280;53654;54.152;19.432;2023-10-08T12:07:20;101937.16;;;12.02;47.31
66742;BME280;53654;54.152;19.432;2023-10-08T12:09:48;101938.05;;;12.07;47.04
66742;BME280;53654;54.152;19.432;2023-10-08T12:12:16;101937.36;;;12.10;47.02
66742;BME280;53654;54.152;19.432;2023-10-08T12:14:50;101948.58;;;12.12;47.00
66742;BME280;53654;54.152;19.432;2023-10-08T12:17:22;101948.05;;;12.14;46.61
66742;BME280;53654;54.152;19.432;2023-10-08T12:20:06;101936.33;;;12.12;45.59
66742;BME280;53654;54.152;19.432;2023-10-08T12:22:51;101939.29;;;12.10;45.46
66742;BME280;53654;54.152;19.432;2023-10-08T12:25:20;101941.05;;;12.12;45.93
66742;BME280;53654;54.152;19.432;2023-10-08T12:27:48;101947.52;;;12.11;46.57
66742;BME280;53654;54.152;19.432;2023-10-08T12:30:17;101956.96;;;12.12;46.51
66742;BME280;53654;54.152;19.432;2023-10-08T12:32:45;101957.48;;;12.11;45.63
66742;BME280;53654;54.152;19.432;2023-10-08T12:35:14;101954.14;;;12.05;45.21
66742;BME280;53654;54.152;19.432;2023-10-08T12:37:42;101959.02;;;12.04;45.31
66742;BME280;53654;54.152;19.432;2023-10-08T12:40:12;101962.86;;;12.01;45.54
66742;BME280;53654;54.152;19.432;2023-10-08T12:42:40;101966.19;;;12.01;46.05
66742;BME280;53654;54.152;19.432;2023-10-08T12:45:12;101972.84;;;12.04;46.29
66742;BME280;53654;54.152;19.432;2023-10-08T12:47:40;101971.11;;;12.07;46.33
66742;BME280;53654;54.152;19.432;2023-10-08T12:50:10;101987.05;;;12.11;46.00
66742;BME280;53654;54.152;19.432;2023-10-08T12:52:44;101988.64;;;12.15;45.87
66742;BME280;53654;54.152;19.432;2023-10-08T12:55:22;101990.02;;;12.12;45.79
66742;BME280;53654;54.152;19.432;2023-10-08T12:57:53;101992.79;;;12.06;46.10
66742;BME280;53654;54.152;19.432;2023-10-08T13:00:33;101991.70;;;11.98;46.63
66742;BME280;53654;54.152;19.432;2023-10-08T13:03:02;101978.06;;;11.99;47.03
66742;BME280;53654;54.152;19.432;2023-10-08T13:05:33;101983.14;;;12.00;47.62
66742;BME280;53654;54.152;19.432;2023-10-08T13:08:02;101986.84;;;12.03;48.15
66742;BME280;53654;54.152;19.432;2023-10-08T13:10:37;101988.08;;;12.07;48.03
66742;BME280;53654;54.152;19.432;2023-10-08T13:13:10;101990.90;;;12.12;48.11
66742;BME280;53654;54.152;19.432;2023-10-08T13:15:41;101992.48;;;12.13;47.97
66742;BME280;53654;54.152;19.432;2023-10-08T13:18:09;101982.70;;;12.14;48.30
66742;BME280;53654;54.152;19.432;2023-10-08T13:20:38;101998.77;;;12.13;48.20